Time;durP1;ratioP1;P1;durP2;ratioP2;P2;SDS_P1;SDS_P2;PMS_P1;PMS_P2;Temp;Humidity;BMP_temperature;BMP_pressure;BME280_temperature;BME280_humidity;BME280_pressure;Samples;Min_cycle;Max_cycle;Signal;HPM_P1;HPM_P2
2020/12/09 00:00:51;;;;;;;;;;;;;;;;;;5044153;28;19952;-80
2020/12/09 00:03:17;;;;;;;;;;;;;;;;;;5051942;28;19992;-83
2020/12/09 00:05:44;;;;;;;;;;;;;;;;;;5044534;28;20017;-83
2020/12/09 00:08:10;;;;;;;;;;;;;;;;;;5048108;28;19931;-83
2020/12/09 00:10:36;;;;;;;;;;;;;;;;;;5042435;28;19947;-83
2020/12/09 00:13:03;;;;;;;;;;;;;;;;;;5040251;28;19925;-83
2020/12/09 00:15:35;;;;;;;;;;;;;;;;;;5042506;28;19964;-82
2020/12/09 00:18:01;;;;;;;;;;;;;;;;;;5041870;28;19926;-83
2020/12/09 00:20:28;;;;;;;;;;;;;;;;;;5043266;28;19932;-84
2020/12/09 00:22:54;;;;;;;;;;;;;;;;;;5051856;28;19925;-81
2020/12/09 00:25:21;;;;;;;;;;;;;;;;;;5058407;28;19925;-83
2020/12/09 00:27:47;;;;;;;;;;;;;;;;;;5065096;28;19933;-83
2020/12/09 00:30:13;;;;;;;;;;;;;;;;;;5058019;28;19929;-81
2020/12/09 00:32:40;;;;;;;;;;;;;;;;;;5055253;28;19979;-83
2020/12/09 00:35:06;;;;;;;;;;;;;;;;;;5054438;28;19947;-83
2020/12/09 00:37:33;;;;;;;;;;;;;;;;;;5042307;28;19925;-83
2020/12/09 00:39:59;;;;;;;;;;;;;;;;;;5038935;28;19979;-83
2020/12/09 00:42:25;;;;;;;;;;;;;;;;;;5035452;28;20329;-83
2020/12/09 00:44:52;;;;;;;;;;;;;;;;;;5037822;28;19925;-84
2020/12/09 00:47:19;;;;;;;;;;;;;;;;;;5037229;28;19988;-83
2020/12/09 00:50:26;;;;;;;;;;;;;;;;;;5037338;28;19932;-84
2020/12/09 00:52:44;;;;;;;;;;;;;;;;;;5047101;28;19936;-81
2020/12/09 00:55:11;;;;;;;;;;;;;;;;;;5050335;28;19959;-80
2020/12/09 00:57:37;;;;;;;;;;;;;;;;;;5037193;28;19948;-83
2020/12/09 01:00:03;;;;;;;;;;;;;;;;;;5038109;28;20005;-83
2020/12/09 01:02:30;;;;;;;;;;;;;;;;;;5034086;28;19929;-83
2020/12/09 01:04:56;;;;;;;;;;;;;;;;;;5037909;28;19931;-83
2020/12/09 01:07:23;;;;;;;;;;;;;;;;;;5037203;28;19986;-83
2020/12/09 01:09:49;;;;;;;;;;;;;;;;;;5037752;28;20325;-83
2020/12/09 01:12:15;;;;;;;;;;;;;;;;;;5034448;28;19933;-83
2020/12/09 01:14:42;;;;;;;;;;;;;;;;;;5035028;28;19929;-83
2020/12/09 01:17:08;;;;;;;;;;;;;;;;;;5037472;28;19967;-83
2020/12/09 01:19:35;;;;;;;;;;;;;;;;;;5036227;28;19940;-83
2020/12/09 01:22:01;;;;;;;;;;;;;;;;;;5052899;28;19925;-81
2020/12/09 01:24:27;;;;;;;;;;;;;;;;;;5043806;28;19929;-82
2020/12/09 01:26:54;;;;;;;;;;;;;;;;;;5030997;28;19979;-82
2020/12/09 01:29:20;;;;;;;;;;;;;;;;;;5043038;28;19932;-82
2020/12/09 01:31:47;;;;;;;;;;;;;;;;;;5035130;28;19996;-82
2020/12/09 01:34:14;;;;;;;;;;;;;;;;;;5032888;28;20321;-81
2020/12/09 01:36:40;;;;;;;;;;;;;;;;;;5041036;28;19940;-82
2020/12/09 01:39:06;;;;;;;;;;;;;;;;;;5053326;28;19925;-81
2020/12/09 01:41:33;;;;;;;;;;;;;;;;;;5045050;28;19933;-84
2020/12/09 01:43:59;;;;;;;;;;;;;;;;;;5037538;28;19929;-83
2020/12/09 01:46:26;;;;;;;;;;;;;;;;;;5091105;22;19924;-82
2020/12/09 01:48:52;;;;;;;;;;;;;;;;;;5063342;28;20023;-82
2020/12/09 01:51:18;;;;;;;;;;;;;;;;;;5064452;28;19929;-82
2020/12/09 01:53:45;;;;;;;;;;;;;;;;;;5063165;28;19955;-81
2020/12/09 01:56:11;;;;;;;;;;;;;;;;;;5060969;28;19925;-81
2020/12/09 01:58:37;;;;;;;;;;;;;;;;;;5044978;28;19925;-82
2020/12/09 02:01:04;;;;;;;;;;;;;;;;;;5047856;28;19925;-82
2020/12/09 02:03:30;;;;;;;;;;;;;;;;;;5047985;28;20302;-82
2020/12/09 02:05:56;;;;;;;;;;;;;;;;;;5044198;28;19926;-82
2020/12/09 02:08:23;;;;;;;;;;;;;;;;;;5050871;28;19925;-82
2020/12/09 02:10:49;;;;;;;;;;;;;;;;;;5047661;28;19925;-82
2020/12/09 02:13:16;;;;;;;;;;;;;;;;;;5057759;28;19937;-83
2020/12/09 02:15:42;;;;;;;;;;;;;;;;;;5052739;28;19925;-82
2020/12/09 02:18:08;;;;;;;;;;;;;;;;;;5055911;28;19955;-82
2020/12/09 02:20:35;;;;;;;;;;;;;;;;;;5054458;28;19947;-82
2020/12/09 02:23:01;;;;;;;;;;;;;;;;;;5047789;28;19928;-83
2020/12/09 02:25:28;;;;;;;;;;;;;;;;;;5057608;28;19909;-82
2020/12/09 02:27:55;;;;;;;;;;;;;;;;;;5058755;28;20019;-82
2020/12/09 02:30:21;;;;;;;;;;;;;;;;;;5042430;28;19951;-81
2020/12/09 02:32:47;;;;;;;;;;;;;;;;;;5051646;28;19925;-82
2020/12/09 02:35:14;;;;;;;;;;;;;;;;;;5048211;28;19928;-82
2020/12/09 02:37:40;;;;;;;;;;;;;;;;;;5053040;28;20336;-82
2020/12/09 02:40:06;;;;;;;;;;;;;;;;;;5049634;28;19947;-82
2020/12/09 02:42:33;;;;;;;;;;;;;;;;;;5046097;28;19929;-82
2020/12/09 02:44:59;;;;;;;;;;;;;;;;;;5053071;28;19924;-81
2020/12/09 02:47:26;;;;;;;;;;;;;;;;;;5052453;28;19925;-82
2020/12/09 02:49:52;;;;;;;;;;;;;;;;;;5041265;28;19933;-81
2020/12/09 02:52:18;;;;;;;;;;;;;;;;;;5041731;28;20475;-82
2020/12/09 02:54:45;;;;;;;;;;;;;;;;;;5037732;28;19980;-82
2020/12/09 02:57:11;;;;;;;;;;;;;;;;;;5036810;28;19948;-81
2020/12/09 02:59:37;;;;;;;;;;;;;;;;;;5038036;28;20015;-82
2020/12/09 03:02:04;;;;;;;;;;;;;;;;;;5036385;28;20423;-81
2020/12/09 03:04:30;;;;;;;;;;;;;;;;;;5036430;28;19933;-82
2020/12/09 03:06:57;;;;;;;;;;;;;;;;;;5036334;28;19925;-81
2020/12/09 03:09:23;;;;;;;;;;;;;;;;;;5048658;28;19924;-82
2020/12/09 03:11:49;;;;;;;;;;;;;;;;;;5040213;28;19925;-82
2020/12/09 03:14:16;;;;;;;;;;;;;;;;;;5040160;28;19933;-81
2020/12/09 03:16:42;;;;;;;;;;;;;;;;;;5047668;28;19940;-81
2020/12/09 03:19:08;;;;;;;;;;;;;;;;;;5054178;28;19925;-82
2020/12/09 03:21:35;;;;;;;;;;;;;;;;;;5046387;28;20263;-83
2020/12/09 03:24:01;;;;;;;;;;;;;;;;;;5049415;28;20686;-82
2020/12/09 03:26:28;;;;;;;;;;;;;;;;;;5044401;28;19925;-82
2020/12/09 03:28:54;;;;;;;;;;;;;;;;;;5052805;28;19928;-82
2020/12/09 03:31:20;;;;;;;;;;;;;;;;;;5042882;28;20683;-82
2020/12/09 03:33:47;;;;;;;;;;;;;;;;;;5040553;28;19929;-80
2020/12/09 03:36:13;;;;;;;;;;;;;;;;;;5035738;28;19932;-80
2020/12/09 03:38:39;;;;;;;;;;;;;;;;;;5048023;28;20396;-81
2020/12/09 03:41:06;;;;;;;;;;;;;;;;;;5056287;28;19929;-81
2020/12/09 03:43:32;;;;;;;;;;;;;;;;;;5053974;28;19930;-81
2020/12/09 03:45:59;;;;;;;;;;;;;;;;;;5047023;28;19925;-81
2020/12/09 03:48:25;;;;;;;;;;;;;;;;;;5043381;28;20335;-81
2020/12/09 03:50:51;;;;;;;;;;;;;;;;;;5045795;28;19925;-81
2020/12/09 03:53:18;;;;;;;;;;;;;;;;;;5047612;28;19928;-81
2020/12/09 03:55:44;;;;;;;;;;;;;;;;;;5060094;28;20376;-81
2020/12/09 03:58:10;;;;;;;;;;;;;;;;;;5064326;28;19959;-82
2020/12/09 04:00:37;;;;;;;;;;;;;;;;;;5049015;28;19929;-82
2020/12/09 04:03:03;;;;;;;;;;;;;;;;;;5051653;28;19928;-82
2020/12/09 04:05:29;;;;;;;;;;;;;;;;;;5037392;28;19925;-82
2020/12/09 04:07:56;;;;;;;;;;;;;;;;;;5049909;28;19928;-82
2020/12/09 04:10:22;;;;;;;;;;;;;;;;;;5054967;28;19925;-83
2020/12/09 04:12:49;;;;;;;;;;;;;;;;;;5060527;28;20369;-82
2020/12/09 04:15:15;;;;;;;;;;;;;;;;;;5065813;28;19925;-81
2020/12/09 04:17:41;;;;;;;;;;;;;;;;;;5059245;28;19924;-81
2020/12/09 04:20:08;;;;;;;;;;;;;;;;;;5055365;28;19925;-81
2020/12/09 04:22:34;;;;;;;;;;;;;;;;;;5049574;28;19926;-82
2020/12/09 04:25:00;;;;;;;;;;;;;;;;;;5051105;28;19928;-82
2020/12/09 04:27:27;;;;;;;;;;;;;;;;;;5048891;28;19971;-82
2020/12/09 04:29:53;;;;;;;;;;;;;;;;;;5061727;28;20468;-81
2020/12/09 04:32:19;;;;;;;;;;;;;;;;;;5054551;28;19929;-81
2020/12/09 04:34:46;;;;;;;;;;;;;;;;;;5046778;28;19929;-82
2020/12/09 04:37:12;;;;;;;;;;;;;;;;;;5054410;28;19930;-81
2020/12/09 04:39:38;;;;;;;;;;;;;;;;;;5052279;28;19925;-81
2020/12/09 04:42:05;;;;;;;;;;;;;;;;;;5036959;28;19925;-81
2020/12/09 04:44:31;;;;;;;;;;;;;;;;;;5036547;28;19956;-80
2020/12/09 04:46:58;;;;;;;;;;;;;;;;;;5036347;28;19925;-82
2020/12/09 04:49:24;;;;;;;;;;;;;;;;;;5036149;28;19932;-82
2020/12/09 04:51:50;;;;;;;;;;;;;;;;;;5038131;28;20031;-82
2020/12/09 04:54:18;;;;;;;;;;;;;;;;;;5042855;28;19925;-82
2020/12/09 04:56:44;;;;;;;;;;;;;;;;;;5041091;28;19972;-83
2020/12/09 04:59:10;;;;;;;;;;;;;;;;;;5040597;28;19948;-84
2020/12/09 05:01:37;;;;;;;;;;;;;;;;;;5049876;28;19971;-83
2020/12/09 05:04:03;;;;;;;;;;;;;;;;;;5046383;28;20321;-83
2020/12/09 05:06:29;;;;;;;;;;;;;;;;;;5047526;28;19929;-84
2020/12/09 05:08:56;;;;;;;;;;;;;;;;;;5056378;28;19925;-84
2020/12/09 05:11:22;;;;;;;;;;;;;;;;;;5058144;28;19925;-84
2020/12/09 05:13:49;;;;;;;;;;;;;;;;;;5048455;28;19929;-84
2020/12/09 05:16:15;;;;;;;;;;;;;;;;;;5050740;28;20008;-84
2020/12/09 05:18:41;;;;;;;;;;;;;;;;;;5045680;28;19947;-84
2020/12/09 05:21:08;;;;;;;;;;;;;;;;;;5058196;28;19924;-83
2020/12/09 05:23:34;;;;;;;;;;;;;;;;;;5044894;28;19933;-84
2020/12/09 05:26:01;;;;;;;;;;;;;;;;;;5052627;28;20849;-84
2020/12/09 05:28:27;;;;;;;;;;;;;;;;;;5047006;28;19934;-84
2020/12/09 05:30:54;;;;;;;;;;;;;;;;;;5046834;28;19925;-83
2020/12/09 05:33:20;;;;;;;;;;;;;;;;;;5040976;28;19955;-84
2020/12/09 05:35:47;;;;;;;;;;;;;;;;;;5049704;28;19978;-84
2020/12/09 05:38:13;;;;;;;;;;;;;;;;;;5042201;28;20012;-84
2020/12/09 05:40:40;;;;;;;;;;;;;;;;;;5039210;28;19936;-84
2020/12/09 05:43:06;;;;;;;;;;;;;;;;;;5041173;28;19992;-84
2020/12/09 05:45:33;;;;;;;;;;;;;;;;;;5055596;28;19928;-83
2020/12/09 05:47:59;;;;;;;;;;;;;;;;;;5045171;28;20353;-83
2020/12/09 05:50:25;;;;;;;;;;;;;;;;;;5033475;28;19996;-83
2020/12/09 05:52:52;;;;;;;;;;;;;;;;;;5055946;28;19925;-82
2020/12/09 05:55:18;;;;;;;;;;;;;;;;;;5040328;28;19986;-82
2020/12/09 05:57:45;;;;;;;;;;;;;;;;;;5052737;28;19925;-83
2020/12/09 06:00:11;;;;;;;;;;;;;;;;;;5040564;28;19991;-83
2020/12/09 06:02:37;;;;;;;;;;;;;;;;;;5051015;28;19925;-82
2020/12/09 06:05:04;;;;;;;;;;;;;;;;;;5072517;28;19909;-83
2020/12/09 06:07:31;;;;;;;;;;;;;;;;;;5055293;28;20453;-83
2020/12/09 06:09:57;;;;;;;;;;;;;;;;;;5050928;28;19983;-83
2020/12/09 06:12:24;;;;;;;;;;;;;;;;;;5050697;28;19912;-83
2020/12/09 06:14:50;;;;;;;;;;;;;;;;;;5060462;28;19929;-83
2020/12/09 06:17:16;;;;;;;;;;;;;;;;;;5055385;28;19924;-83
2020/12/09 06:19:43;;;;;;;;;;;;;;;;;;5050459;28;19924;-82
2020/12/09 06:22:09;;;;;;;;;;;;;;;;;;5059675;28;19925;-83
2020/12/09 06:24:35;;;;;;;;;;;;;;;;;;5045812;28;19932;-83
2020/12/09 06:27:02;;;;;;;;;;;;;;;;;;5052309;28;19971;-84
2020/12/09 06:29:28;;;;;;;;;;;;;;;;;;5046373;28;19932;-84
2020/12/09 06:31:55;;;;;;;;;;;;;;;;;;5050507;28;19943;-84
2020/12/09 06:34:21;;;;;;;;;;;;;;;;;;5070882;28;20401;-84
2020/12/09 06:36:47;;;;;;;;;;;;;;;;;;5048111;28;19933;-83
2020/12/09 06:39:15;;;;;;;;;;;;;;;;;;5056912;28;19978;-84
2020/12/09 06:41:41;;;;;;;;;;;;;;;;;;5046068;28;19925;-84
2020/12/09 06:44:08;;;;;;;;;;;;;;;;;;5040455;28;19948;-81
2020/12/09 06:46:34;;;;;;;;;;;;;;;;;;5057806;28;19932;-84
2020/12/09 06:49:01;;;;;;;;;;;;;;;;;;5058593;28;19931;-85
2020/12/09 06:51:27;;;;;;;;;;;;;;;;;;5059582;28;19925;-84
2020/12/09 06:53:54;;;;;;;;;;;;;;;;;;5058996;28;19925;-84
2020/12/09 06:56:20;;;;;;;;;;;;;;;;;;5049652;28;19929;-84
2020/12/09 06:58:46;;;;;;;;;;;;;;;;;;5073412;28;20416;-83
2020/12/09 07:01:13;;;;;;;;;;;;;;;;;;5072756;28;19932;-84
2020/12/09 07:03:39;;;;;;;;;;;;;;;;;;5060663;28;19937;-83
2020/12/09 07:06:05;;;;;;;;;;;;;;;;;;5045788;28;19925;-84
2020/12/09 07:08:32;;;;;;;;;;;;;;;;;;5053436;28;19932;-84
2020/12/09 07:10:58;;;;;;;;;;;;;;;;;;5060524;28;19925;-85
2020/12/09 07:13:25;;;;;;;;;;;;;;;;;;5059912;28;20078;-84
2020/12/09 07:15:51;;;;;;;;;;;;;;;;;;5051137;28;19986;-83
2020/12/09 07:18:17;;;;;;;;;;;;;;;;;;5039492;28;19940;-83
2020/12/09 07:20:44;;;;;;;;;;;;;;;;;;5037767;28;19990;-82
2020/12/09 07:23:11;;;;;;;;;;;;;;;;;;5048316;28;19924;-84
2020/12/09 07:28:24;;;;;;;;;;;;;;;;;;5053058;28;19927;-84
2020/12/09 07:38:51;;;;;;;;;;;;;;;;;;5948277;22;20007;-83
2020/12/09 07:41:17;;;;;;;;;;;;;;;;;;5060228;28;19955;-83
2020/12/09 07:43:47;;;;;;;;;;;;;;;;;;5061143;28;20003;-83
2020/12/09 07:46:14;;;;;;;;;;;;;;;;;;5059984;28;20391;-83
2020/12/09 07:48:40;;;;;;;;;;;;;;;;;;5051588;28;19929;-84
2020/12/09 07:51:07;;;;;;;;;;;;;;;;;;5067646;22;19975;-82
2020/12/09 07:53:35;;;;;;;;;;;;;;;;;;5038261;28;20028;-81
2020/12/09 07:56:01;;;;;;;;;;;;;;;;;;5045252;28;19932;-82
2020/12/09 07:58:28;;;;;;;;;;;;;;;;;;5036599;28;19929;-83
2020/12/09 08:00:55;;;;;;;;;;;;;;;;;;5035766;28;19925;-82
2020/12/09 08:03:22;;;;;;;;;;;;;;;;;;5030650;28;19932;-82
2020/12/09 08:05:48;;;;;;;;;;;;;;;;;;5032253;28;19929;-82
2020/12/09 08:08:15;;;;;;;;;;;;;;;;;;5028806;28;20278;-81
2020/12/09 08:10:43;;;;;;;;;;;;;;;;;;5032688;28;19929;-82
2020/12/09 08:13:09;;;;;;;;;;;;;;;;;;5032002;28;19948;-82
2020/12/09 08:15:36;;;;;;;;;;;;;;;;;;5026068;28;20341;-80
2020/12/09 08:18:02;;;;;;;;;;;;;;;;;;5029752;28;19949;-79
2020/12/09 08:20:29;;;;;;;;;;;;;;;;;;5048722;28;19925;-80
2020/12/09 08:22:55;;;;;;;;;;;;;;;;;;5050281;28;19925;-80
2020/12/09 08:25:21;;;;;;;;;;;;;;;;;;5040189;28;19936;-80
2020/12/09 08:27:48;;;;;;;;;;;;;;;;;;5039751;28;19933;-78
2020/12/09 08:30:15;;;;;;;;;;;;;;;;;;5056166;28;19909;-80
2020/12/09 08:32:42;;;;;;;;;;;;;;;;;;5055281;28;19933;-78
2020/12/09 08:35:09;;;;;;;;;;;;;;;;;;5036288;28;19929;-79
2020/12/09 08:37:35;;;;;;;;;;;;;;;;;;5028789;28;19933;-81
2020/12/09 08:40:01;;;;;;;;;;;;;;;;;;5026778;28;19929;-79
2020/12/09 08:42:28;;;;;;;;;;;;;;;;;;5039437;28;19940;-79
2020/12/09 08:44:54;;;;;;;;;;;;;;;;;;5049314;28;19925;-80
2020/12/09 08:47:21;;;;;;;;;;;;;;;;;;5041799;28;19935;-80
2020/12/09 08:49:47;;;;;;;;;;;;;;;;;;5045217;28;19940;-79
2020/12/09 08:52:13;;;;;;;;;;;;;;;;;;5042784;28;19932;-81
2020/12/09 08:54:40;;;;;;;;;;;;;;;;;;5025341;28;19925;-84
2020/12/09 08:57:06;;;;;;;;;;;;;;;;;;5035489;28;19936;-83
2020/12/09 08:59:33;;;;;;;;;;;;;;;;;;5049713;28;19992;-81
2020/12/09 09:02:02;;;;;;;;;;;;;;;;;;5049319;28;19935;-81
2020/12/09 09:04:32;;;;;;;;;;;;;;;;;;5046709;28;19929;-80
2020/12/09 09:06:58;;;;;;;;;;;;;;;;;;5052417;28;19933;-81
2020/12/09 09:09:25;;;;;;;;;;;;;;;;;;5060722;28;20812;-82
2020/12/09 09:11:52;;;;;;;;;;;;;;;;;;5057959;28;19928;-81
2020/12/09 09:14:18;;;;;;;;;;;;;;;;;;5047962;28;19933;-81
2020/12/09 09:16:45;;;;;;;;;;;;;;;;;;5039649;28;19952;-82
2020/12/09 09:19:11;;;;;;;;;;;;;;;;;;5057940;28;19951;-82
2020/12/09 09:21:40;;;;;;;;;;;;;;;;;;5052566;28;19936;-79
2020/12/09 09:24:06;;;;;;;;;;;;;;;;;;5054702;28;19924;-81
2020/12/09 09:26:32;;;;;;;;;;;;;;;;;;5066896;28;19935;-79
2020/12/09 09:28:59;;;;;;;;;;;;;;;;;;5031211;28;19925;-81
2020/12/09 09:31:25;;;;;;;;;;;;;;;;;;5021252;28;19937;-81
2020/12/09 09:33:52;;;;;;;;;;;;;;;;;;5035625;28;19926;-82
2020/12/09 09:36:18;;;;;;;;;;;;;;;;;;5031434;28;19933;-82
2020/12/09 09:38:45;;;;;;;;;;;;;;;;;;5034675;28;19934;-82
2020/12/09 09:41:11;;;;;;;;;;;;;;;;;;5048308;28;19926;-82
2020/12/09 09:43:37;;;;;;;;;;;;;;;;;;5036551;28;20325;-82
2020/12/09 09:46:04;;;;;;;;;;;;;;;;;;5044077;28;19941;-80
2020/12/09 09:48:30;;;;;;;;;;;;;;;;;;5033796;28;19936;-82
2020/12/09 09:50:57;;;;;;;;;;;;;;;;;;5025943;28;19929;-82
2020/12/09 09:53:23;;;;;;;;;;;;;;;;;;5023890;28;19979;-82
2020/12/09 09:55:50;;;;;;;;;;;;;;;;;;5025862;28;19941;-83
2020/12/09 09:58:17;;;;;;;;;;;;;;;;;;5020609;28;20015;-83
2020/12/09 10:00:43;;;;;;;;;;;;;;;;;;5020019;28;20419;-82
2020/12/09 10:03:10;;;;;;;;;;;;;;;;;;5024670;28;19940;-81
2020/12/09 10:05:36;;;;;;;;;;;;;;;;;;5028789;28;19929;-81
2020/12/09 10:08:03;;;;;;;;;;;;;;;;;;5045713;28;19909;-83
2020/12/09 10:10:29;;;;;;;;;;;;;;;;;;5051006;28;19928;-82
2020/12/09 10:12:56;;;;;;;;;;;;;;;;;;5048829;28;20027;-80
2020/12/09 10:15:22;;;;;;;;;;;;;;;;;;5031731;28;19925;-81
2020/12/09 10:17:48;;;;;;;;;;;;;;;;;;5034510;28;19929;-81
2020/12/09 10:20:15;;;;;;;;;;;;;;;;;;5037662;28;19924;-82
2020/12/09 10:22:42;;;;;;;;;;;;;;;;;;5018100;28;19933;-80
2020/12/09 10:25:08;;;;;;;;;;;;;;;;;;5018472;28;19930;-77
2020/12/09 10:27:34;;;;;;;;;;;;;;;;;;5036092;28;20352;-81
2020/12/09 10:30:01;;;;;;;;;;;;;;;;;;5034026;28;20468;-80
2020/12/09 10:32:27;;;;;;;;;;;;;;;;;;5022317;28;19937;-80
2020/12/09 10:34:54;;;;;;;;;;;;;;;;;;5037746;28;20458;-81
2020/12/09 10:37:21;;;;;;;;;;;;;;;;;;5038760;28;19933;-79
2020/12/09 10:39:51;;;;;;;;;;;;;;;;;;5043578;28;19979;-81
2020/12/09 10:42:19;;;;;;;;;;;;;;;;;;5042007;28;19933;-81
2020/12/09 10:44:45;;;;;;;;;;;;;;;;;;5044765;28;19985;-80
2020/12/09 10:47:12;;;;;;;;;;;;;;;;;;5034847;28;19932;-82
2020/12/09 10:49:43;;;;;;;;;;;;;;;;;;5041196;28;19935;-82
2020/12/09 10:52:10;;;;;;;;;;;;;;;;;;5025774;28;19932;-84
2020/12/09 10:54:36;;;;;;;;;;;;;;;;;;5024690;28;20378;-81
2020/12/09 10:57:03;;;;;;;;;;;;;;;;;;5027485;28;19972;-81
2020/12/09 10:59:29;;;;;;;;;;;;;;;;;;5022109;28;19937;-81
2020/12/09 11:01:55;;;;;;;;;;;;;;;;;;5029580;28;20362;-81
2020/12/09 11:04:22;;;;;;;;;;;;;;;;;;5015458;28;19930;-80
2020/12/09 11:06:48;;;;;;;;;;;;;;;;;;5046763;28;19929;-80
2020/12/09 11:09:15;;;;;;;;;;;;;;;;;;5046898;28;19926;-80
2020/12/09 11:11:45;;;;;;;;;;;;;;;;;;5042995;28;19933;-80
2020/12/09 11:14:12;;;;;;;;;;;;;;;;;;5036078;28;19933;-80
2020/12/09 11:16:38;;;;;;;;;;;;;;;;;;5031666;28;19951;-80
2020/12/09 11:19:05;;;;;;;;;;;;;;;;;;5023482;28;19980;-81
2020/12/09 11:21:31;;;;;;;;;;;;;;;;;;5029759;28;19929;-81
2020/12/09 11:23:59;;;;;;;;;;;;;;;;;;5016449;28;19929;-78
2020/12/09 11:26:27;;;;;;;;;;;;;;;;;;5030273;28;19964;-79
2020/12/09 11:28:53;;;;;;;;;;;;;;;;;;5029721;28;20270;-82
2020/12/09 11:31:20;;;;;;;;;;;;;;;;;;5022113;28;19926;-82
2020/12/09 11:33:46;;;;;;;;;;;;;;;;;;5022509;28;20457;-82
2020/12/09 11:36:12;;;;;;;;;;;;;;;;;;5027630;28;19987;-82
2020/12/09 11:38:39;;;;;;;;;;;;;;;;;;5027299;28;19925;-82
2020/12/09 11:41:05;;;;;;;;;;;;;;;;;;5030958;28;20328;-79
2020/12/09 11:43:32;;;;;;;;;;;;;;;;;;5040608;28;19979;-82
2020/12/09 11:45:58;;;;;;;;;;;;;;;;;;5043443;28;19929;-81
2020/12/09 11:48:24;;;;;;;;;;;;;;;;;;5046902;28;19925;-80
2020/12/09 11:50:51;;;;;;;;;;;;;;;;;;5057157;28;19909;-85
2020/12/09 11:53:17;;;;;;;;;;;;;;;;;;5042900;28;20000;-81
2020/12/09 11:55:44;;;;;;;;;;;;;;;;;;5034938;28;19991;-81
2020/12/09 11:58:10;;;;;;;;;;;;;;;;;;5036910;28;19932;-79
2020/12/09 12:00:37;;;;;;;;;;;;;;;;;;5022819;28;19933;-82
2020/12/09 12:03:03;;;;;;;;;;;;;;;;;;5053940;28;19928;-81
2020/12/09 12:05:33;;;;;;;;;;;;;;;;;;5037684;28;19931;-83
2020/12/09 12:08:04;;;;;;;;;;;;;;;;;;5046971;28;19925;-81
2020/12/09 12:10:30;;;;;;;;;;;;;;;;;;5019239;28;19925;-81
2020/12/09 12:12:58;;;;;;;;;;;;;;;;;;5031240;28;19929;-82
2020/12/09 12:15:25;;;;;;;;;;;;;;;;;;5019443;28;20020;-80
2020/12/09 12:17:51;;;;;;;;;;;;;;;;;;5018171;28;19945;-82
2020/12/09 12:20:18;;;;;;;;;;;;;;;;;;5038219;28;19929;-81
2020/12/09 12:22:44;;;;;;;;;;;;;;;;;;5042613;28;19983;-80
2020/12/09 12:25:10;;;;;;;;;;;;;;;;;;5030782;28;19936;-80
2020/12/09 12:27:37;;;;;;;;;;;;;;;;;;5042333;28;19979;-81
2020/12/09 12:30:03;;;;;;;;;;;;;;;;;;5024190;28;19940;-82
2020/12/09 12:32:30;;;;;;;;;;;;;;;;;;5027194;28;19944;-81
2020/12/09 12:34:56;;;;;;;;;;;;;;;;;;5045074;28;19924;-80
2020/12/09 12:37:22;;;;;;;;;;;;;;;;;;5064797;28;19935;-80
2020/12/09 12:39:49;;;;;;;;;;;;;;;;;;5061002;28;19933;-82
2020/12/09 12:42:15;;;;;;;;;;;;;;;;;;5033775;28;19926;-82
2020/12/09 12:44:42;;;;;;;;;;;;;;;;;;5037952;28;20004;-82
2020/12/09 12:47:08;;;;;;;;;;;;;;;;;;5053136;28;20312;-82
2020/12/09 12:49:35;;;;;;;;;;;;;;;;;;5035118;28;19925;-82
2020/12/09 12:52:01;;;;;;;;;;;;;;;;;;5026792;28;19948;-83
2020/12/09 12:54:27;;;;;;;;;;;;;;;;;;5026406;28;19936;-80
2020/12/09 12:56:54;;;;;;;;;;;;;;;;;;5035163;28;20294;-82
2020/12/09 12:59:21;;;;;;;;;;;;;;;;;;5030488;28;19925;-83
2020/12/09 13:01:49;;;;;;;;;;;;;;;;;;5037151;28;20389;-81
2020/12/09 13:04:15;;;;;;;;;;;;;;;;;;5028103;28;20238;-80
2020/12/09 13:06:42;;;;;;;;;;;;;;;;;;5051489;28;19932;-81
2020/12/09 13:09:08;;;;;;;;;;;;;;;;;;5025720;28;19926;-79
2020/12/09 13:11:35;;;;;;;;;;;;;;;;;;5031401;28;19952;-81
2020/12/09 13:14:01;;;;;;;;;;;;;;;;;;5036976;28;20301;-80
2020/12/09 13:16:28;;;;;;;;;;;;;;;;;;5022034;28;20429;-81
2020/12/09 13:18:54;;;;;;;;;;;;;;;;;;5018344;28;19925;-80
2020/12/09 13:21:20;;;;;;;;;;;;;;;;;;5051641;28;19929;-80
2020/12/09 13:23:47;;;;;;;;;;;;;;;;;;5029659;28;19940;-81
2020/12/09 13:26:14;;;;;;;;;;;;;;;;;;5033902;28;19956;-81
2020/12/09 13:28:42;;;;;;;;;;;;;;;;;;5046515;28;19977;-82
2020/12/09 13:31:08;;;;;;;;;;;;;;;;;;5037621;28;19957;-81
2020/12/09 13:33:34;;;;;;;;;;;;;;;;;;5020347;28;19933;-79
2020/12/09 13:36:01;;;;;;;;;;;;;;;;;;5015724;28;20008;-81
2020/12/09 13:38:27;;;;;;;;;;;;;;;;;;5027833;28;20360;-81
2020/12/09 13:40:54;;;;;;;;;;;;;;;;;;5030700;28;19952;-80
2020/12/09 13:43:20;;;;;;;;;;;;;;;;;;5037047;28;19978;-80
2020/12/09 13:45:46;;;;;;;;;;;;;;;;;;5035300;28;19933;-80
2020/12/09 13:48:13;;;;;;;;;;;;;;;;;;5034509;28;19979;-80
2020/12/09 13:50:39;;;;;;;;;;;;;;;;;;5032756;28;21800;-80
2020/12/09 13:53:06;;;;;;;;;;;;;;;;;;5028982;28;19979;-80
2020/12/09 13:55:32;;;;;;;;;;;;;;;;;;5021628;28;20278;-81
2020/12/09 13:57:59;;;;;;;;;;;;;;;;;;5018843;28;19936;-81
2020/12/09 14:00:25;;;;;;;;;;;;;;;;;;5039412;28;19944;-81
2020/12/09 14:02:55;;;;;;;;;;;;;;;;;;5069337;28;19921;-80
2020/12/09 14:05:22;;;;;;;;;;;;;;;;;;5071726;28;19959;-80
2020/12/09 14:07:48;;;;;;;;;;;;;;;;;;5041871;28;19925;-79
2020/12/09 14:10:15;;;;;;;;;;;;;;;;;;5032410;28;19925;-81
2020/12/09 14:12:44;;;;;;;;;;;;;;;;;;5016856;28;19936;-80
2020/12/09 14:15:11;;;;;;;;;;;;;;;;;;5020449;28;19944;-80
2020/12/09 14:17:38;;;;;;;;;;;;;;;;;;5037273;28;19933;-81
2020/12/09 14:20:08;;;;;;;;;;;;;;;;;;5024146;28;19929;-78
2020/12/09 14:22:35;;;;;;;;;;;;;;;;;;5036936;28;19931;-79
2020/12/09 14:25:03;;;;;;;;;;;;;;;;;;5019295;28;19926;-79
2020/12/09 14:27:29;;;;;;;;;;;;;;;;;;5015648;28;19925;-81
2020/12/09 14:29:56;;;;;;;;;;;;;;;;;;5015043;28;19925;-80
2020/12/09 14:32:22;;;;;;;;;;;;;;;;;;5018805;28;19925;-79
2020/12/09 14:34:49;;;;;;;;;;;;;;;;;;5019745;28;20012;-81
2020/12/09 14:37:16;;;;;;;;;;;;;;;;;;5036144;28;20340;-80
2020/12/09 14:39:42;;;;;;;;;;;;;;;;;;5045455;28;19929;-80
2020/12/09 14:42:08;;;;;;;;;;;;;;;;;;5059516;28;19931;-82
2020/12/09 14:44:35;;;;;;;;;;;;;;;;;;5043660;28;19948;-82
2020/12/09 14:47:01;;;;;;;;;;;;;;;;;;5055278;28;19930;-81
2020/12/09 14:49:28;;;;;;;;;;;;;;;;;;5056475;28;19971;-79
2020/12/09 14:51:54;;;;;;;;;;;;;;;;;;5047952;28;19925;-81
2020/12/09 14:54:20;;;;;;;;;;;;;;;;;;5047439;28;19925;-79
2020/12/09 14:56:47;;;;;;;;;;;;;;;;;;5049883;28;19916;-80
2020/12/09 14:59:13;;;;;;;;;;;;;;;;;;5054121;28;19909;-80
2020/12/09 15:01:40;;;;;;;;;;;;;;;;;;5036105;28;20329;-81
2020/12/09 15:04:12;;;;;;;;;;;;;;;;;;5020602;28;19926;-81
2020/12/09 15:06:38;;;;;;;;;;;;;;;;;;5040323;28;19932;-81
2020/12/09 15:09:04;;;;;;;;;;;;;;;;;;5058012;28;19932;-80
2020/12/09 15:11:32;;;;;;;;;;;;;;;;;;5061140;28;19909;-80
2020/12/09 15:13:58;;;;;;;;;;;;;;;;;;5056781;28;19925;-80
2020/12/09 15:16:25;;;;;;;;;;;;;;;;;;5066311;28;19925;-81
2020/12/09 15:18:51;;;;;;;;;;;;;;;;;;5066431;28;19933;-81
2020/12/09 15:21:17;;;;;;;;;;;;;;;;;;5052171;28;19933;-81
2020/12/09 15:23:45;;;;;;;;;;;;;;;;;;5043348;28;19926;-80
2020/12/09 15:26:12;;;;;;;;;;;;;;;;;;5030661;28;19926;-77
2020/12/09 15:28:39;;;;;;;;;;;;;;;;;;5035202;28;19956;-77
2020/12/09 15:31:05;;;;;;;;;;;;;;;;;;5059856;28;19929;-80
2020/12/09 15:33:31;;;;;;;;;;;;;;;;;;5057704;28;19925;-80
2020/12/09 15:35:58;;;;;;;;;;;;;;;;;;5033554;28;19929;-80
2020/12/09 15:38:24;;;;;;;;;;;;;;;;;;5018655;28;19926;-80
2020/12/09 15:40:51;;;;;;;;;;;;;;;;;;5018775;28;20297;-81
2020/12/09 15:43:17;;;;;;;;;;;;;;;;;;5031778;28;19929;-81
2020/12/09 15:45:44;;;;;;;;;;;;;;;;;;5037864;28;20348;-81
2020/12/09 15:48:10;;;;;;;;;;;;;;;;;;5026104;28;20394;-80
2020/12/09 15:50:36;;;;;;;;;;;;;;;;;;5036718;28;19932;-81
2020/12/09 15:53:03;;;;;;;;;;;;;;;;;;5041901;28;20301;-80
2020/12/09 15:55:29;;;;;;;;;;;;;;;;;;5035516;28;19926;-81
2020/12/09 15:57:56;;;;;;;;;;;;;;;;;;5025103;28;19925;-82
2020/12/09 16:00:22;;;;;;;;;;;;;;;;;;5033944;28;19937;-81
2020/12/09 16:02:48;;;;;;;;;;;;;;;;;;5030659;28;19933;-81
2020/12/09 16:05:15;;;;;;;;;;;;;;;;;;5049132;28;19935;-84
2020/12/09 16:07:41;;;;;;;;;;;;;;;;;;5041096;28;20304;-83
2020/12/09 16:10:09;;;;;;;;;;;;;;;;;;5038669;28;19932;-83
2020/12/09 16:12:36;;;;;;;;;;;;;;;;;;5048351;28;19926;-83
2020/12/09 16:15:03;;;;;;;;;;;;;;;;;;5029943;28;19930;-81
2020/12/09 16:17:29;;;;;;;;;;;;;;;;;;5032183;28;19932;-81
2020/12/09 16:19:55;;;;;;;;;;;;;;;;;;5039378;28;19925;-80
2020/12/09 16:22:23;;;;;;;;;;;;;;;;;;5040867;28;20003;-82
2020/12/09 16:24:50;;;;;;;;;;;;;;;;;;5028178;28;19926;-83
2020/12/09 16:27:16;;;;;;;;;;;;;;;;;;5039659;28;19925;-81
2020/12/09 16:29:42;;;;;;;;;;;;;;;;;;5057357;28;19931;-82
2020/12/09 16:32:09;;;;;;;;;;;;;;;;;;5047722;28;19936;-80
2020/12/09 16:34:37;;;;;;;;;;;;;;;;;;5036144;28;19925;-82
2020/12/09 16:37:03;;;;;;;;;;;;;;;;;;5029523;28;19929;-83
2020/12/09 16:39:29;;;;;;;;;;;;;;;;;;5026625;28;19932;-82
2020/12/09 16:41:57;;;;;;;;;;;;;;;;;;5025743;28;19949;-81
2020/12/09 16:44:24;;;;;;;;;;;;;;;;;;5039385;28;19952;-80
2020/12/09 16:46:51;;;;;;;;;;;;;;;;;;5046750;28;19926;-81
2020/12/09 16:49:17;;;;;;;;;;;;;;;;;;5050615;28;19964;-82
2020/12/09 16:51:43;;;;;;;;;;;;;;;;;;5049771;28;19928;-82